Time;durP1;ratioP1;P1;durP2;ratioP2;P2;SDS_P1;SDS_P2;PMS_P1;PMS_P2;Temp;Humidity;BMP_temperature;BMP_pressure;BME280_temperature;BME280_humidity;BME280_pressure;Samples;Min_cycle;Max_cycle;Signal;HPM_P1;HPM_P2
2022/02/12 00:00:18;;;;;;;;;;;5.60;77.00;;;;;;5026014;28;87156;-46
2022/02/12 00:02:43;;;;;;;;;;;5.60;76.90;;;;;;5025978;28;88571;-43
2022/02/12 00:05:09;;;;;;;;;;;5.60;76.90;;;;;;5025545;28;89528;-46
2022/02/12 00:07:36;;;;;;;;;;;5.60;77.00;;;;;;5025856;28;87132;-45
2022/02/12 00:10:01;;;;;;;;;;;5.60;77.00;;;;;;5025838;28;88917;-45
2022/02/12 00:12:27;;;;;;;;;;;5.60;76.90;;;;;;5025769;28;88791;-44
2022/02/12 00:14:55;;;;;;;;;;;5.60;76.90;;;;;;5028809;28;87124;-44
2022/02/12 00:17:21;;;;;;;;;;;5.60;77.00;;;;;;5025306;28;89374;-46
2022/02/12 00:19:47;;;;;;;;;;;5.60;76.90;;;;;;5025148;28;88021;-46
2022/02/12 00:22:12;;;;;;;;;;;5.60;77.00;;;;;;5025544;28;89489;-44
2022/02/12 00:24:38;;;;;;;;;;;5.60;76.90;;;;;;5025347;28;89859;-46
2022/02/12 00:27:03;;;;;;;;;;;5.50;76.90;;;;;;5025579;28;87164;-43
2022/02/12 00:29:29;;;;;;;;;;;5.60;76.90;;;;;;5025587;28;89355;-46
2022/02/12 00:31:54;;;;;;;;;;;5.50;76.80;;;;;;5025208;28;89683;-45
2022/02/12 00:34:20;;;;;;;;;;;5.50;76.90;;;;;;5025350;28;87181;-43
2022/02/12 00:36:45;;;;;;;;;;;5.50;76.80;;;;;;5028412;28;89091;-46
2022/02/12 00:39:13;;;;;;;;;;;5.50;76.80;;;;;;5025262;28;87191;-45
2022/02/12 00:41:39;;;;;;;;;;;5.50;76.80;;;;;;5025027;28;89037;-46
2022/02/12 00:44:04;;;;;;;;;;;5.50;76.90;;;;;;5023859;28;90331;-45
2022/02/12 00:46:30;;;;;;;;;;;5.50;76.80;;;;;;5025259;28;87264;-46
2022/02/12 00:48:55;;;;;;;;;;;5.40;76.80;;;;;;5025367;28;89131;-45
2022/02/12 00:51:21;;;;;;;;;;;5.40;76.90;;;;;;5024977;28;88746;-45
2022/02/12 00:53:47;;;;;;;;;;;5.40;76.80;;;;;;5025242;28;86840;-44
2022/02/12 00:56:13;;;;;;;;;;;5.40;76.70;;;;;;5024817;28;89067;-45
2022/02/12 00:58:39;;;;;;;;;;;5.40;76.80;;;;;;5028032;28;88011;-45
2022/02/12 01:01:05;;;;;;;;;;;5.40;76.90;;;;;;5025717;28;89123;-42
2022/02/12 01:03:30;;;;;;;;;;;5.40;76.80;;;;;;5024720;28;89374;-45
2022/02/12 01:05:57;;;;;;;;;;;5.40;76.90;;;;;;5024551;28;87194;-43
2022/02/12 01:08:23;;;;;;;;;;;5.40;76.90;;;;;;5024381;28;88962;-46
2022/02/12 01:10:48;;;;;;;;;;;5.40;76.90;;;;;;5024332;28;89173;-47
2022/02/12 01:13:14;;;;;;;;;;;5.30;76.80;;;;;;5024687;28;87165;-45
2022/02/12 01:15:40;;;;;;;;;;;5.30;76.90;;;;;;5024764;28;89128;-44
2022/02/12 01:18:05;;;;;;;;;;;5.30;76.90;;;;;;5024415;28;89433;-42
2022/02/12 01:20:31;;;;;;;;;;;5.30;76.90;;;;;;5027679;28;86926;-43
2022/02/12 01:22:56;;;;;;;;;;;5.30;76.80;;;;;;5024359;28;89486;-45
2022/02/12 01:25:22;;;;;;;;;;;5.30;76.90;;;;;;5024910;28;86391;-46
2022/02/12 01:27:48;;;;;;;;;;;5.30;76.90;;;;;;5024657;28;88087;-43
2022/02/12 01:30:13;;;;;;;;;;;5.30;76.90;;;;;;5024248;28;89755;-47
2022/02/12 01:32:39;;;;;;;;;;;5.30;76.90;;;;;;5023937;28;88322;-46
2022/02/12 01:35:07;;;;;;;;;;;5.30;76.80;;;;;;5024541;28;89887;-43
2022/02/12 01:37:33;;;;;;;;;;;5.20;76.90;;;;;;5024122;28;89408;-44
2022/02/12 01:39:59;;;;;;;;;;;5.20;76.90;;;;;;5027472;28;87176;-42
2022/02/12 01:42:24;;;;;;;;;;;5.20;76.80;;;;;;5023722;28;89796;-43
2022/02/12 01:44:50;;;;;;;;;;;5.20;76.80;;;;;;5024600;28;87144;-46
2022/02/12 01:47:15;;;;;;;;;;;5.20;76.90;;;;;;5024294;28;89177;-45
2022/02/12 01:49:41;;;;;;;;;;;5.20;77.00;;;;;;5024528;28;88707;-42
2022/02/12 01:52:08;;;;;;;;;;;5.10;76.90;;;;;;5024098;28;87162;-44
2022/02/12 01:54:34;;;;;;;;;;;5.10;76.80;;;;;;5024332;28;88734;-46
2022/02/12 01:57:03;;;;;;;;;;;5.10;76.80;;;;;;5022927;28;90417;-47
2022/02/12 01:59:29;;;;;;;;;;;5.10;76.90;;;;;;5024425;28;86909;-42
2022/02/12 02:01:55;;;;;;;;;;;5.10;76.90;;;;;;5026807;28;88996;-46
2022/02/12 02:04:21;;;;;;;;;;;5.10;76.80;;;;;;5024231;28;87140;-44
2022/02/12 02:06:49;;;;;;;;;;;5.10;77.40;;;;;;5023971;28;88740;-43
2022/02/12 02:09:15;;;;;;;;;;;5.10;76.80;;;;;;5023608;28;89524;-43
2022/02/12 02:11:41;;;;;;;;;;;5.10;76.80;;;;;;5023902;28;87200;-44
2022/02/12 02:14:07;;;;;;;;;;;5.10;76.90;;;;;;5024616;28;89020;-43
2022/02/12 02:16:33;;;;;;;;;;;5.10;76.90;;;;;;5023313;28;89414;-45
2022/02/12 02:18:58;;;;;;;;;;;5.00;76.80;;;;;;5023021;28;87220;-46
2022/02/12 02:21:24;;;;;;;;;;;5.10;76.90;;;;;;5023198;28;89280;-46
2022/02/12 02:23:50;;;;;;;;;;;5.00;76.80;;;;;;5026453;28;89559;-45
2022/02/12 02:26:16;;;;;;;;;;;5.00;77.30;;;;;;5023550;28;89068;-43
2022/02/12 02:28:41;;;;;;;;;;;5.00;76.80;;;;;;5023424;28;89373;-43
2022/02/12 02:31:07;;;;;;;;;;;5.00;76.80;;;;;;5023698;28;87184;-43
2022/02/12 02:33:32;;;;;;;;;;;5.00;76.80;;;;;;5023696;28;87802;-46
2022/02/12 02:35:58;;;;;;;;;;;4.90;76.80;;;;;;5023251;28;90187;-49
2022/02/12 02:38:24;;;;;;;;;;;5.00;76.90;;;;;;5024061;28;86335;-44
2022/02/12 02:40:52;;;;;;;;;;;4.90;76.80;;;;;;5023368;28;87210;-42
2022/02/12 02:43:17;;;;;;;;;;;4.90;76.80;;;;;;5022746;28;89447;-45
2022/02/12 02:45:43;;;;;;;;;;;4.90;76.90;;;;;;5026018;28;88086;-46
2022/02/12 02:48:09;;;;;;;;;;;4.90;77.00;;;;;;5022960;28;89287;-44
2022/02/12 02:56:03;;;;;;;;;;;4.90;76.90;;;;;;5023219;28;87312;-46
2022/02/12 02:58:33;;;;;;;;;;;4.90;77.00;;;;;;5023266;28;87143;-44
2022/02/12 03:00:59;;;;;;;;;;;4.80;77.00;;;;;;5023395;28;88796;-46
2022/02/12 03:03:25;;;;;;;;;;;4.80;77.00;;;;;;5023280;28;87802;-46
2022/02/12 03:05:50;;;;;;;;;;;4.80;77.60;;;;;;5023077;28;87122;-44
2022/02/12 03:08:16;;;;;;;;;;;4.80;77.00;;;;;;5025817;28;89035;-45
2022/02/12 03:10:41;;;;;;;;;;;4.70;77.10;;;;;;5022512;28;88102;-46
2022/02/12 03:13:07;;;;;;;;;;;4.70;76.90;;;;;;5023450;28;88594;-46
2022/02/12 03:15:32;;;;;;;;;;;4.70;77.00;;;;;;5022766;28;88904;-44
2022/02/12 03:17:58;;;;;;;;;;;4.70;77.00;;;;;;5022928;28;87366;-44
2022/02/12 03:20:23;;;;;;;;;;;4.70;77.00;;;;;;5023004;28;88873;-46
2022/02/12 03:22:49;;;;;;;;;;;4.70;77.10;;;;;;5022590;28;88621;-43
2022/02/12 03:25:14;;;;;;;;;;;4.70;77.10;;;;;;5022899;28;87212;-46
2022/02/12 03:27:40;;;;;;;;;;;4.70;77.10;;;;;;5025838;28;88991;-46
2022/02/12 03:30:06;;;;;;;;;;;4.70;77.10;;;;;;5025755;28;87197;-43
2022/02/12 03:32:31;;;;;;;;;;;4.70;77.10;;;;;;5026446;28;89429;-45
2022/02/12 03:34:57;;;;;;;;;;;4.60;77.00;;;;;;5025322;28;90669;-46
2022/02/12 03:37:26;;;;;;;;;;;4.60;77.00;;;;;;5025962;28;87187;-46
2022/02/12 03:39:52;;;;;;;;;;;4.60;77.00;;;;;;5026378;28;88779;-43
2022/02/12 03:42:17;;;;;;;;;;;4.60;77.00;;;;;;5025938;28;89695;-45
2022/02/12 03:44:43;;;;;;;;;;;4.60;77.00;;;;;;5026104;28;87241;-43
2022/02/12 03:47:09;;;;;;;;;;;4.60;77.10;;;;;;5026249;28;88633;-47
2022/02/12 03:49:34;;;;;;;;;;;4.60;77.10;;;;;;5028736;28;89664;-47
2022/02/12 03:52:00;;;;;;;;;;;4.60;77.10;;;;;;5026549;28;89698;-42
2022/02/12 03:54:25;;;;;;;;;;;4.50;77.10;;;;;;5025769;28;90159;-45
2022/02/12 03:56:51;;;;;;;;;;;4.50;77.30;;;;;;5026078;28;87176;-43
2022/02/12 03:59:16;;;;;;;;;;;4.50;77.20;;;;;;5025408;28;89226;-46
2022/02/12 04:01:42;;;;;;;;;;;4.50;77.30;;;;;;5025768;28;90275;-46
2022/02/12 04:04:07;;;;;;;;;;;4.50;77.40;;;;;;5025923;28;86920;-43
2022/02/12 04:06:33;;;;;;;;;;;4.40;77.30;;;;;;5025770;28;88062;-42
2022/02/12 04:08:58;;;;;;;;;;;4.40;77.30;;;;;;5025448;28;88663;-46
2022/02/12 04:11:24;;;;;;;;;;;4.40;77.30;;;;;;5028991;28;87166;-44
2022/02/12 04:13:52;;;;;;;;;;;4.40;77.40;;;;;;5025535;28;89289;-45
2022/02/12 04:16:18;;;;;;;;;;;4.40;77.40;;;;;;5026093;28;86369;-45
2022/02/12 04:18:45;;;;;;;;;;;4.40;77.40;;;;;;5025690;28;88463;-43
2022/02/12 04:21:10;;;;;;;;;;;4.40;77.50;;;;;;5024926;28;88602;-46
2022/02/12 04:23:36;;;;;;;;;;;4.30;77.30;;;;;;5024895;28;88520;-46
2022/02/12 04:26:03;;;;;;;;;;;4.40;77.40;;;;;;5025452;28;89817;-43
2022/02/12 04:28:35;;;;;;;;;;;4.30;77.40;;;;;;5025191;28;89236;-42
2022/02/12 04:31:02;;;;;;;;;;;4.30;77.50;;;;;;5025715;28;87035;-46
2022/02/12 04:33:27;;;;;;;;;;;4.30;77.40;;;;;;5028140;28;89210;-44
2022/02/12 04:35:53;;;;;;;;;;;4.30;77.30;;;;;;5025262;28;87230;-44
2022/02/12 04:38:19;;;;;;;;;;;4.30;77.40;;;;;;5025407;28;89115;-48
2022/02/12 04:40:44;;;;;;;;;;;4.30;77.40;;;;;;5024761;28;88515;-43
2022/02/12 04:43:10;;;;;;;;;;;4.30;77.40;;;;;;5024599;28;87246;-44
2022/02/12 04:45:35;;;;;;;;;;;4.20;77.50;;;;;;5025388;28;89042;-45
2022/02/12 04:48:01;;;;;;;;;;;4.30;77.60;;;;;;5024167;28;90598;-45
2022/02/12 04:50:27;;;;;;;;;;;4.20;77.50;;;;;;5025468;28;86979;-43
2022/02/12 04:52:52;;;;;;;;;;;4.20;77.50;;;;;;5025271;28;88910;-46
2022/02/12 04:55:18;;;;;;;;;;;4.20;77.50;;;;;;5027603;28;89552;-44
2022/02/12 04:57:44;;;;;;;;;;;4.20;77.50;;;;;;5024869;28;89587;-46
2022/02/12 05:00:09;;;;;;;;;;;4.20;77.70;;;;;;5024801;28;89728;-47
2022/02/12 05:02:35;;;;;;;;;;;4.10;77.60;;;;;;5057433;27;86816;-46
2022/02/12 05:05:01;;;;;;;;;;;4.10;77.50;;;;;;5025221;28;88869;-44
2022/02/12 05:07:26;;;;;;;;;;;4.10;78.10;;;;;;5024659;28;89441;-42
2022/02/12 05:09:52;;;;;;;;;;;4.10;77.50;;;;;;5025158;28;87152;-44
2022/02/12 05:12:18;;;;;;;;;;;4.10;77.60;;;;;;5024313;28;88488;-45
2022/02/12 05:14:43;;;;;;;;;;;4.10;77.70;;;;;;5024605;28;89253;-46
2022/02/12 05:17:09;;;;;;;;;;;4.10;77.70;;;;;;5027715;28;87352;-43
2022/02/12 05:19:34;;;;;;;;;;;4.10;77.60;;;;;;5024547;28;88636;-43
2022/02/12 05:22:00;;;;;;;;;;;4.10;77.70;;;;;;5024766;28;87269;-46
2022/02/12 05:24:25;;;;;;;;;;;4.10;77.50;;;;;;5024517;28;89005;-44
2022/02/12 05:26:51;;;;;;;;;;;4.10;77.50;;;;;;5024192;28;88534;-43
2022/02/12 05:29:16;;;;;;;;;;;4.10;77.40;;;;;;5023886;28;86389;-46
2022/02/12 05:31:42;;;;;;;;;;;4.10;77.50;;;;;;5024603;28;88809;-42
2022/02/12 05:34:08;;;;;;;;;;;4.10;77.40;;;;;;5024190;28;90030;-43
2022/02/12 05:36:33;;;;;;;;;;;4.00;77.40;;;;;;5026534;28;88124;-46
2022/02/12 05:38:59;;;;;;;;;;;4.00;77.50;;;;;;5024052;28;89656;-47
2022/02/12 05:41:24;;;;;;;;;;;4.00;77.40;;;;;;5024479;28;87351;-42
2022/02/12 05:43:50;;;;;;;;;;;4.00;77.40;;;;;;5023884;28;89056;-45
2022/02/12 05:46:16;;;;;;;;;;;4.00;77.40;;;;;;5024091;28;89638;-43
2022/02/12 05:48:43;;;;;;;;;;;4.00;77.60;;;;;;5024408;28;87108;-43
2022/02/12 05:51:09;;;;;;;;;;;4.00;77.50;;;;;;5024247;28;87786;-43
2022/02/12 05:53:34;;;;;;;;;;;4.00;77.50;;;;;;5023342;28;89184;-43
2022/02/12 05:56:00;;;;;;;;;;;4.00;77.60;;;;;;5024146;28;87218;-45
2022/02/12 05:58:26;;;;;;;;;;;3.90;77.60;;;;;;5026656;28;88689;-45
2022/02/12 06:00:51;;;;;;;;;;;4.00;77.70;;;;;;5023592;28;88135;-45
2022/02/12 06:03:17;;;;;;;;;;;4.00;77.60;;;;;;5024042;28;89895;-45
2022/02/12 06:05:43;;;;;;;;;;;4.00;77.60;;;;;;5023662;28;89672;-44
2022/02/12 06:08:09;;;;;;;;;;;3.90;77.60;;;;;;5023925;28;87005;-45
2022/02/12 06:10:34;;;;;;;;;;;3.90;77.70;;;;;;5023992;28;88966;-44
2022/02/12 06:13:00;;;;;;;;;;;3.90;77.70;;;;;;5023620;28;89668;-44
2022/02/12 06:15:26;;;;;;;;;;;3.90;77.70;;;;;;5024054;28;87143;-45
2022/02/12 06:17:51;;;;;;;;;;;3.90;77.70;;;;;;5024424;28;88643;-42
2022/02/12 06:20:17;;;;;;;;;;;3.90;77.80;;;;;;5026252;28;89584;-46
2022/02/12 06:22:43;;;;;;;;;;;3.90;77.80;;;;;;5023923;28;89217;-43
2022/02/12 06:25:08;;;;;;;;;;;3.90;77.80;;;;;;5022994;28;90655;-43
2022/02/12 06:27:34;;;;;;;;;;;3.90;77.80;;;;;;5023829;28;87182;-43
2022/02/12 06:29:59;;;;;;;;;;;3.90;77.80;;;;;;5023984;28;88851;-42
2022/02/12 06:32:25;;;;;;;;;;;3.90;77.90;;;;;;5023118;28;89329;-44
2022/02/12 06:34:51;;;;;;;;;;;3.90;77.90;;;;;;5023531;28;87159;-43
2022/02/12 06:37:19;;;;;;;;;;;3.90;77.80;;;;;;5023458;28;88586;-45
2022/02/12 06:39:46;;;;;;;;;;;3.90;77.80;;;;;;5023214;28;89585;-42
2022/02/12 06:42:11;;;;;;;;;;;4.00;77.80;;;;;;5026955;28;86285;-43
2022/02/12 06:44:37;;;;;;;;;;;3.90;77.80;;;;;;5023011;28;89470;-42
2022/02/12 06:47:03;;;;;;;;;;;3.90;77.80;;;;;;5023505;28;86996;-44
2022/02/12 06:49:28;;;;;;;;;;;3.90;77.80;;;;;;5022893;28;88618;-46
2022/02/12 06:51:54;;;;;;;;;;;3.90;77.90;;;;;;5023008;28;89500;-46
2022/02/12 06:54:19;;;;;;;;;;;3.90;78.00;;;;;;5023705;28;87214;-44
2022/02/12 06:56:45;;;;;;;;;;;3.90;77.90;;;;;;5023368;28;88844;-45
2022/02/12 06:59:10;;;;;;;;;;;3.90;77.90;;;;;;5023164;28;88273;-42
2022/02/12 07:01:36;;;;;;;;;;;3.90;77.90;;;;;;5023273;28;87211;-43
2022/02/12 07:04:03;;;;;;;;;;;3.90;77.90;;;;;;5025159;28;88972;-45
2022/02/12 07:06:29;;;;;;;;;;;3.90;77.90;;;;;;5023637;28;86433;-43
2022/02/12 07:08:54;;;;;;;;;;;3.90;77.80;;;;;;5023294;28;88509;-43
2022/02/12 07:11:20;;;;;;;;;;;3.90;77.80;;;;;;5022837;28;88766;-44
2022/02/12 07:13:45;;;;;;;;;;;3.90;77.80;;;;;;5022441;28;88150;-45
2022/02/12 07:16:12;;;;;;;;;;;3.90;77.80;;;;;;5023097;28;89067;-42
2022/02/12 07:18:38;;;;;;;;;;;3.90;77.80;;;;;;5022717;28;88763;-45
2022/02/12 07:21:05;;;;;;;;;;;3.90;77.80;;;;;;5023120;28;87621;-43
2022/02/12 07:23:31;;;;;;;;;;;3.90;77.90;;;;;;5023210;28;87771;-44
2022/02/12 07:25:57;;;;;;;;;;;3.90;77.90;;;;;;5025888;28;88635;-44
2022/02/12 07:28:22;;;;;;;;;;;3.90;77.80;;;;;;5023096;28;88984;-46
2022/02/12 07:30:49;;;;;;;;;;;3.90;77.80;;;;;;5023063;28;88717;-46
2022/02/12 07:33:14;;;;;;;;;;;3.90;77.80;;;;;;5022937;28;87182;-45
2022/02/12 07:35:40;;;;;;;;;;;3.90;77.80;;;;;;5022861;28;89522;-45
2022/02/12 07:38:07;;;;;;;;;;;3.90;77.90;;;;;;5021637;28;90540;-45
2022/02/12 07:40:33;;;;;;;;;;;3.90;77.80;;;;;;5022958;28;87207;-44
2022/02/12 07:42:59;;;;;;;;;;;3.90;77.80;;;;;;5022376;28;89258;-46
2022/02/12 07:45:24;;;;;;;;;;;3.90;77.90;;;;;;5025361;28;89980;-45
2022/02/12 07:47:50;;;;;;;;;;;3.90;77.90;;;;;;5022759;28;87780;-42
2022/02/12 07:50:16;;;;;;;;;;;3.90;77.90;;;;;;5022022;28;89228;-47
2022/02/12 07:52:43;;;;;;;;;;;3.90;77.90;;;;;;5022701;28;87192;-44
2022/02/12 07:55:10;;;;;;;;;;;3.90;78.00;;;;;;5023333;28;88865;-45
2022/02/12 07:57:36;;;;;;;;;;;3.90;77.90;;;;;;5022302;28;89352;-47
2022/02/12 08:00:03;;;;;;;;;;;3.90;77.90;;;;;;5022625;28;87146;-43
2022/02/12 08:02:28;;;;;;;;;;;3.90;78.00;;;;;;5022158;28;87909;-46
2022/02/12 08:04:54;;;;;;;;;;;3.90;77.90;;;;;;5021988;28;89672;-47
2022/02/12 08:07:28;;;;;;;;;;;3.90;78.00;;;;;;5025462;28;87176;-46
2022/02/12 08:09:57;;;;;;;;;;;3.90;78.00;;;;;;5022311;28;89925;-44
2022/02/12 08:12:23;;;;;;;;;;;3.90;78.00;;;;;;5022503;28;87232;-47
2022/02/12 08:14:53;;;;;;;;;;;3.90;78.00;;;;;;5022493;28;88791;-43
2022/02/12 08:17:19;;;;;;;;;;;3.90;77.90;;;;;;5024839;28;89612;-46
2022/02/12 08:19:46;;;;;;;;;;;3.90;77.90;;;;;;5026142;28;86409;-44
2022/02/12 08:22:11;;;;;;;;;;;3.90;77.80;;;;;;5025896;28;88336;-44
2022/02/12 08:24:37;;;;;;;;;;;3.90;77.90;;;;;;5025289;28;89753;-46
2022/02/12 08:27:03;;;;;;;;;;;4.00;77.80;;;;;;5024912;28;88129;-43
2022/02/12 08:29:29;;;;;;;;;;;4.00;77.80;;;;;;5028119;28;88932;-46
2022/02/12 08:31:56;;;;;;;;;;;4.00;77.80;;;;;;5025372;28;87024;-47
2022/02/12 08:34:22;;;;;;;;;;;4.00;77.90;;;;;;5025776;28;89327;-45
2022/02/12 08:36:48;;;;;;;;;;;4.00;77.80;;;;;;5025142;28;88768;-47
2022/02/12 08:39:13;;;;;;;;;;;4.00;77.90;;;;;;5025715;28;87155;-47
2022/02/12 08:41:39;;;;;;;;;;;4.00;77.90;;;;;;5025445;28;88202;-42
2022/02/12 08:44:04;;;;;;;;;;;4.00;77.80;;;;;;5025207;28;88908;-46
2022/02/12 08:46:30;;;;;;;;;;;4.00;77.90;;;;;;5025245;28;87134;-45
2022/02/12 08:48:56;;;;;;;;;;;4.00;77.90;;;;;;5025247;28;89284;-43
2022/02/12 08:51:21;;;;;;;;;;;4.00;78.00;;;;;;5027090;28;90545;-44
2022/02/12 08:53:47;;;;;;;;;;;4.00;77.90;;;;;;5025296;28;89852;-44
2022/02/12 08:56:12;;;;;;;;;;;4.00;78.00;;;;;;5024740;28;89830;-45
2022/02/12 08:58:39;;;;;;;;;;;4.00;78.00;;;;;;5025313;28;87026;-46
2022/02/12 09:01:05;;;;;;;;;;;4.00;78.00;;;;;;5025124;28;87900;-46
2022/02/12 09:03:31;;;;;;;;;;;3.90;78.00;;;;;;5024698;28;89743;-44
2022/02/12 09:05:58;;;;;;;;;;;4.00;78.00;;;;;;5025022;28;87108;-44
2022/02/12 09:08:24;;;;;;;;;;;4.00;78.00;;;;;;5025450;28;87919;-43
2022/02/12 09:10:49;;;;;;;;;;;3.90;78.00;;;;;;5024823;28;89662;-44
2022/02/12 09:13:15;;;;;;;;;;;4.00;78.10;;;;;;5027780;28;87079;-46
2022/02/12 09:15:40;;;;;;;;;;;4.00;78.10;;;;;;5024009;28;90743;-43
2022/02/12 09:18:06;;;;;;;;;;;3.90;78.00;;;;;;5024253;28;87263;-45
2022/02/12 09:20:31;;;;;;;;;;;4.00;78.10;;;;;;5024939;28;88978;-44
2022/02/12 09:22:57;;;;;;;;;;;3.90;78.10;;;;;;5024395;28;89166;-45
2022/02/12 09:25:22;;;;;;;;;;;4.00;78.20;;;;;;5024793;28;87131;-47
2022/02/12 09:27:48;;;;;;;;;;;4.00;78.20;;;;;;5024332;28;87807;-43
2022/02/12 09:30:13;;;;;;;;;;;4.00;78.10;;;;;;5024248;28;89775;-43
2022/02/12 09:32:39;;;;;;;;;;;4.00;78.20;;;;;;5025154;28;86302;-45
2022/02/12 09:35:05;;;;;;;;;;;4.00;78.10;;;;;;5027174;28;88531;-46
2022/02/12 09:37:30;;;;;;;;;;;4.00;78.20;;;;;;5024405;28;87055;-43
2022/02/12 09:39:56;;;;;;;;;;;4.00;78.20;;;;;;5023832;28;88862;-47
2022/02/12 09:42:22;;;;;;;;;;;4.00;78.20;;;;;;5023827;28;89559;-45
2022/02/12 09:44:47;;;;;;;;;;;4.00;78.20;;;;;;5024510;28;87040;-44
2022/02/12 09:47:22;;;;;;;;;;;4.00;78.30;;;;;;5024193;28;88578;-44
2022/02/12 09:49:48;;;;;;;;;;;4.00;78.20;;;;;;5024164;28;89324;-44
2022/02/12 09:52:15;;;;;;;;;;;4.00;78.30;;;;;;5024292;28;86955;-42
2022/02/12 09:54:42;;;;;;;;;;;4.00;78.40;;;;;;5026898;28;87921;-44
2022/02/12 09:57:08;;;;;;;;;;;4.00;78.30;;;;;;5024535;28;86451;-45
2022/02/12 09:59:34;;;;;;;;;;;4.00;78.30;;;;;;5024251;28;88490;-47
2022/02/12 10:01:59;;;;;;;;;;;4.00;78.40;;;;;;5023530;28;88861;-45
2022/02/12 10:04:25;;;;;;;;;;;4.00;78.50;;;;;;5023404;28;88118;-45
2022/02/12 10:06:51;;;;;;;;;;;4.00;78.40;;;;;;5024120;28;89998;-46
2022/02/12 10:09:17;;;;;;;;;;;4.00;78.40;;;;;;5023659;28;89699;-46
2022/02/12 10:11:42;;;;;;;;;;;4.00;78.30;;;;;;5023973;28;87126;-47
2022/02/12 10:14:09;;;;;;;;;;;4.00;78.20;;;;;;5024051;28;89021;-43
2022/02/12 10:16:55;;;;;;;;;;;4.00;78.40;;;;;;5026407;28;89477;-41
2022/02/12 10:19:33;;;;;;;;;;;4.00;78.40;;;;;;5023975;28;88338;-47
2022/02/12 10:22:04;;;;;;;;;;;4.00;78.20;;;;;;5023873;28;89060;-44
2022/02/12 10:24:50;;;;;;;;;;;4.00;78.30;;;;;;5024010;28;87118;-43
2022/02/12 10:27:16;;;;;;;;;;;4.00;78.00;;;;;;5023804;28;88757;-46
2022/02/12 10:29:45;;;;;;;;;;;4.00;77.90;;;;;;5022679;28;90623;-47
2022/02/12 10:32:11;;;;;;;;;;;4.00;78.00;;;;;;5023641;28;87127;-46
2022/02/12 10:34:42;;;;;;;;;;;4.10;78.10;;;;;;5023646;28;88896;-44
2022/02/12 10:37:09;;;;;;;;;;;4.10;78.20;;;;;;5023126;28;88689;-45
2022/02/12 10:39:37;;;;;;;;;;;4.10;78.10;;;;;;5025528;28;87099;-42
2022/02/12 10:42:04;;;;;;;;;;;4.00;78.10;;;;;;5023301;28;89774;-45
2022/02/12 10:44:31;;;;;;;;;;;4.00;78.10;;;;;;5022917;28;87128;-42
2022/02/12 10:46:56;;;;;;;;;;;4.10;77.90;;;;;;5023899;28;88756;-43
2022/02/12 10:49:24;;;;;;;;;;;4.10;78.10;;;;;;5023187;28;89502;-44
2022/02/12 10:51:53;;;;;;;;;;;4.10;78.10;;;;;;5023380;28;86929;-43
2022/02/12 10:54:19;;;;;;;;;;;4.10;78.10;;;;;;5022853;28;88771;-47
2022/02/12 10:56:50;;;;;;;;;;;4.10;77.90;;;;;;5023007;28;89795;-46
2022/02/12 10:59:16;;;;;;;;;;;4.10;77.90;;;;;;5023351;28;87086;-45
2022/02/12 11:01:42;;;;;;;;;;;4.10;78.00;;;;;;5025871;28;88563;-46
2022/02/12 11:04:08;;;;;;;;;;;4.20;78.00;;;;;;5023506;28;87124;-44
2022/02/12 11:06:38;;;;;;;;;;;4.20;77.90;;;;;;5023261;28;87757;-42
2022/02/12 11:09:03;;;;;;;;;;;4.20;77.70;;;;;;5023028;28;89393;-46
2022/02/12 11:11:32;;;;;;;;;;;4.10;77.90;;;;;;5023482;28;86519;-43
2022/02/12 11:13:58;;;;;;;;;;;4.20;77.90;;;;;;5023547;28;86969;-45
2022/02/12 11:16:24;;;;;;;;;;;4.20;77.70;;;;;;5022700;28;89950;-42
2022/02/12 11:18:51;;;;;;;;;;;4.20;77.90;;;;;;5022438;28;88130;-47
2022/02/12 11:21:18;;;;;;;;;;;4.20;77.90;;;;;;5022905;28;89037;-44
2022/02/12 11:23:57;;;;;;;;;;;4.20;77.70;;;;;;5025947;28;89557;-43
2022/02/12 11:26:23;;;;;;;;;;;4.30;78.00;;;;;;5023178;28;88973;-45
2022/02/12 11:28:49;;;;;;;;;;;4.20;77.80;;;;;;5022660;28;89750;-43
2022/02/12 11:31:14;;;;;;;;;;;4.30;77.80;;;;;;5023061;28;87081;-42
2022/02/12 11:34:00;;;;;;;;;;;4.20;78.40;;;;;;5022950;28;88963;-45
2022/02/12 11:36:25;;;;;;;;;;;4.30;77.70;;;;;;5023001;27;88424;-49
2022/02/12 11:39:03;;;;;;;;;;;4.30;77.80;;;;;;5022880;28;87327;-42
2022/02/12 11:41:28;;;;;;;;;;;4.30;77.80;;;;;;5022901;28;89004;-44
2022/02/12 11:43:54;;;;;;;;;;;4.30;77.90;;;;;;5021174;28;90883;-44
2022/02/12 11:46:38;;;;;;;;;;;4.30;77.90;;;;;;5025391;28;87029;-46
2022/02/12 11:49:22;;;;;;;;;;;4.30;77.70;;;;;;5022321;28;89328;-46
2022/02/12 11:51:48;;;;;;;;;;;4.30;77.70;;;;;;5026121;28;87440;-44
2022/02/12 11:54:33;;;;;;;;;;;4.30;77.90;;;;;;5026272;28;88899;-46
2022/02/12 11:56:59;;;;;;;;;;;4.30;77.60;;;;;;5025138;27;89615;-46
2022/02/12 11:59:24;;;;;;;;;;;4.30;77.60;;;;;;5025959;28;86991;-47
2022/02/12 12:01:51;;;;;;;;;;;4.30;77.10;;;;;;5026568;28;88234;-46
2022/02/12 12:04:18;;;;;;;;;;;4.40;77.50;;;;;;5025676;28;89397;-47
2022/02/12 12:06:59;;;;;;;;;;;4.30;77.10;;;;;;5028999;28;86924;-43
2022/02/12 12:09:25;;;;;;;;;;;4.40;77.10;;;;;;5024573;28;90531;-45
2022/02/12 12:12:09;;;;;;;;;;;4.40;77.20;;;;;;5025891;28;87250;-46
2022/02/12 12:14:35;;;;;;;;;;;4.40;77.00;;;;;;5025909;28;89096;-45
2022/02/12 12:17:01;;;;;;;;;;;4.40;76.90;;;;;;5025210;28;89359;-43
2022/02/12 12:19:27;;;;;;;;;;;4.40;76.90;;;;;;5025659;28;87124;-42
2022/02/12 12:21:59;;;;;;;;;;;4.50;77.20;;;;;;5025775;28;87431;-45
2022/02/12 12:24:25;;;;;;;;;;;4.50;77.10;;;;;;5025258;28;89688;-44
2022/02/12 12:26:51;;;;;;;;;;;4.50;77.00;;;;;;5026233;28;86470;-44
2022/02/12 12:32:02;;;;;;;;;;;4.50;77.10;;;;;;5025892;28;87027;-46
2022/02/12 12:34:28;;;;;;;;;;;4.50;77.40;;;;;;5024867;28;88726;-47
2022/02/12 12:36:56;;;;;;;;;;;4.60;76.80;;;;;;5025076;28;88498;-45
2022/02/12 12:39:29;;;;;;;;;;;4.60;77.30;;;;;;5025425;28;87297;-43
2022/02/12 12:41:56;;;;;;;;;;;4.50;77.00;;;;;;5025512;28;88661;-43
2022/02/12 12:44:23;;;;;;;;;;;4.60;77.00;;;;;;5024958;28;89514;-46
2022/02/12 12:46:50;;;;;;;;;;;4.60;77.30;;;;;;5025379;28;87294;-45
2022/02/12 12:49:34;;;;;;;;;;;4.60;77.00;;;;;;5025233;28;88436;-46
2022/02/12 12:52:00;;;;;;;;;;;4.60;76.80;;;;;;5028458;28;89053;-46
2022/02/12 12:54:33;;;;;;;;;;;4.70;77.00;;;;;;5025326;28;88265;-46
2022/02/12 12:57:00;;;;;;;;;;;4.60;77.00;;;;;;5024682;28;89407;-45
2022/02/12 12:59:26;;;;;;;;;;;4.70;76.90;;;;;;5024519;28;88180;-43
2022/02/12 13:02:03;;;;;;;;;;;4.70;77.00;;;;;;5024291;28;89634;-42
2022/02/12 13:04:29;;;;;;;;;;;4.70;77.10;;;;;;5024758;28;89640;-46
2022/02/12 13:06:56;;;;;;;;;;;4.70;77.20;;;;;;5025130;28;87250;-44
2022/02/12 13:09:22;;;;;;;;;;;4.70;77.10;;;;;;5025005;28;88930;-47
2022/02/12 13:11:48;;;;;;;;;;;4.70;76.70;;;;;;5024701;28;89437;-47
2022/02/12 13:14:14;;;;;;;;;;;4.70;76.70;;;;;;5027474;28;87134;-45
2022/02/12 13:16:40;;;;;;;;;;;4.70;77.10;;;;;;5025030;28;89081;-43
2022/02/12 13:19:13;;;;;;;;;;;4.80;77.10;;;;;;5025086;28;87145;-46
2022/02/12 13:21:55;;;;;;;;;;;4.80;77.00;;;;;;5025122;28;89187;-47
2022/02/12 13:24:21;;;;;;;;;;;4.80;77.00;;;;;;5023752;28;90669;-43
2022/02/12 13:26:47;;;;;;;;;;;4.80;77.00;;;;;;5024313;28;87250;-42
2022/02/12 13:29:16;;;;;;;;;;;4.80;77.20;;;;;;5024665;28;88665;-42
2022/02/12 13:31:44;;;;;;;;;;;4.80;77.40;;;;;;5024180;28;89409;-44
2022/02/12 13:34:10;;;;;;;;;;;4.90;77.20;;;;;;5024591;28;87180;-46
2022/02/12 13:36:45;;;;;;;;;;;4.90;76.90;;;;;;5027061;28;88988;-47
2022/02/12 13:39:14;;;;;;;;;;;4.80;77.30;;;;;;5024564;28;87269;-42
2022/02/12 13:41:40;;;;;;;;;;;4.90;77.00;;;;;;5024880;28;89123;-45
2022/02/12 13:44:05;;;;;;;;;;;4.90;76.70;;;;;;5023820;28;89658;-45
2022/02/12 13:46:35;;;;;;;;;;;4.90;76.80;;;;;;5024540;28;87164;-45
2022/02/12 13:49:12;;;;;;;;;;;4.90;76.60;;;;;;5023873;28;88844;-47
2022/02/12 13:51:48;;;;;;;;;;;4.90;77.00;;;;;;5023993;28;89395;-44
2022/02/12 13:54:14;;;;;;;;;;;5.00;76.50;;;;;;5024555;28;87077;-44
2022/02/12 13:56:39;;;;;;;;;;;5.00;77.00;;;;;;5026752;28;88979;-43
2022/02/12 13:59:05;;;;;;;;;;;5.00;76.50;;;;;;5024258;28;87164;-46
2022/02/12 14:01:30;;;;;;;;;;;5.00;77.00;;;;;;5024071;28;88752;-43
2022/02/12 14:03:56;;;;;;;;;;;5.00;76.50;;;;;;5023872;28;88786;-46
2022/02/12 14:06:21;;;;;;;;;;;5.00;76.90;;;;;;5024515;28;86369;-46
2022/02/12 14:08:47;;;;;;;;;;;5.00;76.70;;;;;;5024495;28;88134;-43
2022/02/12 14:11:13;;;;;;;;;;;5.00;76.50;;;;;;5023562;28;89563;-47
2022/02/12 14:13:38;;;;;;;;;;;5.10;76.70;;;;;;5022204;28;88032;-42
2022/02/12 14:16:04;;;;;;;;;;;5.10;76.70;;;;;;5024394;28;87527;-47
2022/02/12 14:18:30;;;;;;;;;;;5.10;76.70;;;;;;5026401;28;89475;-43
2022/02/12 14:20:56;;;;;;;;;;;5.10;76.60;;;;;;5023893;28;88803;-45
2022/02/12 14:23:22;;;;;;;;;;;5.10;76.80;;;;;;5023468;28;89181;-44
2022/02/12 14:25:48;;;;;;;;;;;5.10;76.20;;;;;;5024097;28;87151;-45
2022/02/12 14:28:13;;;;;;;;;;;5.10;76.50;;;;;;5023696;28;88603;-45
2022/02/12 14:30:39;;;;;;;;;;;5.10;76.90;;;;;;5023868;28;89007;-47
2022/02/12 14:33:05;;;;;;;;;;;5.10;77.00;;;;;;5023587;28;87179;-45
2022/02/12 14:35:31;;;;;;;;;;;5.10;77.00;;;;;;5022430;28;89486;-46